createdAt,value
2017-08-26T00:00:49.013Z,18.90
2017-08-26T00:03:15.390Z,18.93
2017-08-26T00:05:41.825Z,18.86
2017-08-26T00:08:08.260Z,18.80
2017-08-26T00:10:34.900Z,18.84
2017-08-26T00:13:01.336Z,18.83
2017-08-26T00:15:27.863Z,18.75
2017-08-26T00:17:54.409Z,18.70
2017-08-26T00:20:20.843Z,18.76
2017-08-26T00:22:47.277Z,18.81
2017-08-26T00:25:13.753Z,18.85
2017-08-26T00:27:40.120Z,18.77
2017-08-26T00:30:06.583Z,18.75
2017-08-26T00:32:32.983Z,18.71
2017-08-26T00:34:59.572Z,18.61
2017-08-26T00:37:26.093Z,18.62
2017-08-26T00:39:52.527Z,18.61
2017-08-26T00:42:19.012Z,18.59
2017-08-26T00:44:45.500Z,18.61
2017-08-26T00:47:11.933Z,18.52
2017-08-26T00:49:38.459Z,18.40
2017-08-26T00:52:04.899Z,18.40
2017-08-26T00:54:31.446Z,18.38
2017-08-26T00:56:57.880Z,18.46
2017-08-26T00:59:24.313Z,18.42
2017-08-26T01:01:50.846Z,18.51
2017-08-26T01:04:17.238Z,18.52
2017-08-26T01:06:43.617Z,18.50
2017-08-26T01:09:10.096Z,18.45
2017-08-26T01:11:36.592Z,18.45
2017-08-26T01:14:02.980Z,18.43
2017-08-26T01:16:30.342Z,18.47
2017-08-26T01:18:56.817Z,18.53
2017-08-26T01:21:23.293Z,18.54
2017-08-26T01:23:49.689Z,18.40
2017-08-26T01:26:16.244Z,18.45
2017-08-26T01:28:42.737Z,18.36
2017-08-26T01:31:09.196Z,18.24
2017-08-26T01:33:35.632Z,18.10
2017-08-26T01:36:02.143Z,17.89
2017-08-26T01:38:28.604Z,17.67
2017-08-26T01:40:55.009Z,17.86
2017-08-26T01:43:21.469Z,17.97
2017-08-26T01:45:48.010Z,17.95
2017-08-26T01:48:14.445Z,17.85
2017-08-26T01:50:40.883Z,17.84
2017-08-26T01:53:07.316Z,17.88
2017-08-26T01:55:33.871Z,17.90
2017-08-26T01:58:00.388Z,17.84
2017-08-26T02:00:26.928Z,17.82
2017-08-26T02:02:53.361Z,17.82
2017-08-26T02:05:19.899Z,17.78
2017-08-26T02:07:46.333Z,17.82
2017-08-26T02:10:12.770Z,17.68
2017-08-26T02:12:39.148Z,17.67
2017-08-26T02:15:05.638Z,17.60
2017-08-26T02:17:32.075Z,17.53
2017-08-26T02:19:58.508Z,17.54
2017-08-26T02:22:24.943Z,17.64
2017-08-26T02:24:51.482Z,17.51
2017-08-26T02:27:17.915Z,17.60
2017-08-26T02:29:44.350Z,17.49
2017-08-26T02:32:10.784Z,17.51
2017-08-26T02:34:37.299Z,17.50
2017-08-26T02:37:03.759Z,17.52
2017-08-26T02:39:30.192Z,17.52
2017-08-26T02:41:56.627Z,17.55
2017-08-26T02:44:23.010Z,17.56
2017-08-26T02:46:49.497Z,17.59
2017-08-26T02:49:15.931Z,17.64
2017-08-26T02:51:42.366Z,17.70
2017-08-26T02:54:08.803Z,17.67
2017-08-26T02:56:35.236Z,17.75
2017-08-26T02:59:01.670Z,17.77
2017-08-26T03:01:28.108Z,17.80
2017-08-26T03:03:54.541Z,17.79
2017-08-26T03:06:21.036Z,17.81
2017-08-26T03:08:47.510Z,17.74
2017-08-26T03:11:14.602Z,17.80
2017-08-26T03:13:41.053Z,17.74
2017-08-26T03:16:07.431Z,17.67
2017-08-26T03:18:33.869Z,17.59
2017-08-26T03:21:00.302Z,17.48
2017-08-26T03:23:26.937Z,17.39
2017-08-26T03:25:53.429Z,17.28
2017-08-26T03:28:19.863Z,17.28
2017-08-26T03:30:46.352Z,17.31
2017-08-26T03:33:12.785Z,17.29
2017-08-26T03:35:39.321Z,17.30
2017-08-26T03:38:05.757Z,17.31
2017-08-26T03:40:32.191Z,17.33
2017-08-26T03:42:58.625Z,17.37
2017-08-26T03:45:25.112Z,17.29
2017-08-26T03:47:51.587Z,17.29
2017-08-26T03:50:18.032Z,17.28
2017-08-26T03:52:44.467Z,17.27
2017-08-26T03:55:11.005Z,17.29
2017-08-26T03:57:37.440Z,17.32
2017-08-26T04:00:03.837Z,17.39
2017-08-26T04:02:30.309Z,17.42
2017-08-26T04:04:56.822Z,17.51
2017-08-26T04:07:23.281Z,17.57
2017-08-26T04:09:49.716Z,17.56
2017-08-26T04:12:16.119Z,17.55
2017-08-26T04:14:42.629Z,17.56
2017-08-26T04:17:09.076Z,17.55
2017-08-26T04:19:35.559Z,17.55
2017-08-26T04:22:01.993Z,17.53
2017-08-26T04:24:28.501Z,17.56
2017-08-26T04:26:54.966Z,17.45
2017-08-26T04:29:21.407Z,17.58
2017-08-26T04:31:47.836Z,17.60
2017-08-26T04:34:14.272Z,17.66
2017-08-26T04:36:40.689Z,17.70
2017-08-26T04:39:07.140Z,17.73
2017-08-26T04:41:33.574Z,17.77
2017-08-26T04:44:00.012Z,17.90
2017-08-26T04:46:26.495Z,18.03
2017-08-26T04:48:52.983Z,18.18
2017-08-26T04:51:20.118Z,18.32
2017-08-26T04:53:46.568Z,18.40
2017-08-26T04:56:13.006Z,18.50
2017-08-26T04:58:39.438Z,18.60
2017-08-26T05:01:05.874Z,18.70
2017-08-26T05:03:32.308Z,18.78
2017-08-26T05:05:59.413Z,18.88
2017-08-26T05:08:26.000Z,19.00
2017-08-26T05:10:52.384Z,19.14
2017-08-26T05:13:18.868Z,19.31
2017-08-26T05:15:45.405Z,19.48
2017-08-26T05:18:11.876Z,19.56
2017-08-26T05:20:38.274Z,19.65
2017-08-26T05:23:04.660Z,19.78
2017-08-26T05:25:31.138Z,19.88
2017-08-26T05:27:57.581Z,20.02
2017-08-26T05:30:24.832Z,20.16
2017-08-26T05:32:51.268Z,20.30
2017-08-26T05:35:17.759Z,20.40
2017-08-26T05:37:44.238Z,20.50
2017-08-26T05:40:10.674Z,20.60
2017-08-26T05:42:37.060Z,20.70
2017-08-26T05:45:03.544Z,20.79
2017-08-26T05:47:29.978Z,20.74
2017-08-26T05:49:56.415Z,20.88
2017-08-26T05:52:22.849Z,20.98
2017-08-26T05:54:49.387Z,20.93
2017-08-26T05:57:15.747Z,20.96
2017-08-26T05:59:42.120Z,21.10
2017-08-26T06:02:08.577Z,21.15
2017-08-26T06:04:35.099Z,21.19
2017-08-26T06:07:01.563Z,21.28
2017-08-26T06:09:28.003Z,21.41
2017-08-26T06:11:54.792Z,21.51
2017-08-26T06:14:21.691Z,21.68
2017-08-26T06:16:48.122Z,21.73
2017-08-26T06:19:14.583Z,21.92
2017-08-26T06:21:41.033Z,21.99
2017-08-26T06:24:08.141Z,22.13
2017-08-26T06:26:34.684Z,22.27
2017-08-26T06:29:01.064Z,22.40
2017-08-26T06:31:27.445Z,22.51
2017-08-26T06:33:54.291Z,22.59
2017-08-26T06:36:20.940Z,22.72
2017-08-26T06:38:47.675Z,22.80
2017-08-26T06:41:14.208Z,22.87
2017-08-26T06:43:41.160Z,22.94
2017-08-26T06:46:07.693Z,23.05
2017-08-26T06:48:34.127Z,23.16
2017-08-26T06:51:00.666Z,23.08
2017-08-26T06:53:27.696Z,23.14
2017-08-26T06:55:54.252Z,23.26
2017-08-26T06:58:20.687Z,23.33
2017-08-26T07:00:47.207Z,23.49
2017-08-26T07:03:13.761Z,23.69
2017-08-26T07:05:40.671Z,23.85
2017-08-26T07:08:07.130Z,24.01
2017-08-26T07:10:33.578Z,23.93
2017-08-26T07:13:00.219Z,24.14
2017-08-26T07:15:26.751Z,24.26
2017-08-26T07:17:53.354Z,24.38
2017-08-26T07:20:19.938Z,24.60
2017-08-26T07:22:46.367Z,24.70
2017-08-26T07:25:12.905Z,24.96
2017-08-26T07:27:40.280Z,25.14
2017-08-26T07:30:06.695Z,25.33
2017-08-26T07:32:33.236Z,25.36
2017-08-26T07:35:00.240Z,25.52
2017-08-26T07:37:26.671Z,25.69
2017-08-26T07:39:53.136Z,25.77
2017-08-26T07:42:19.954Z,25.92
2017-08-26T07:44:46.421Z,26.07
2017-08-26T07:47:12.867Z,26.20
2017-08-26T07:49:39.301Z,26.35
2017-08-26T07:52:05.946Z,26.53
2017-08-26T07:54:32.478Z,26.62
2017-08-26T07:56:58.915Z,26.76
2017-08-26T07:59:25.553Z,26.84
2017-08-26T08:01:52.090Z,26.93
2017-08-26T08:04:18.626Z,27.00
2017-08-26T08:06:45.471Z,27.11
2017-08-26T08:09:12.009Z,27.29
2017-08-26T08:11:38.545Z,27.42
2017-08-26T08:14:05.186Z,27.50
2017-08-26T08:16:31.724Z,27.63
2017-08-26T08:18:58.163Z,27.68
2017-08-26T08:21:24.899Z,27.68
2017-08-26T08:23:51.338Z,27.75
2017-08-26T08:26:17.871Z,27.92
2017-08-26T08:28:44.568Z,27.97
2017-08-26T08:31:11.001Z,28.07
2017-08-26T08:33:37.484Z,28.17
2017-08-26T08:36:04.326Z,28.20
2017-08-26T08:38:30.766Z,28.39
2017-08-26T08:40:57.610Z,28.40
2017-08-26T08:43:24.454Z,28.50
2017-08-26T08:45:50.993Z,28.66
2017-08-26T08:48:17.425Z,28.63
2017-08-26T08:50:44.174Z,28.65
2017-08-26T08:53:10.807Z,28.77
2017-08-26T08:55:37.344Z,28.86
2017-08-26T08:58:04.085Z,28.74
2017-08-26T09:00:30.520Z,28.90
2017-08-26T09:02:56.959Z,28.99
2017-08-26T09:05:23.800Z,29.23
2017-08-26T09:07:50.441Z,29.20
2017-08-26T09:10:16.980Z,29.32
2017-08-26T09:12:43.679Z,29.43
2017-08-26T09:15:10.152Z,29.42
2017-08-26T09:17:36.591Z,29.40
2017-08-26T09:20:03.536Z,29.43
2017-08-26T09:22:30.115Z,29.48
2017-08-26T09:24:56.608Z,29.58
2017-08-26T09:27:23.258Z,29.62
2017-08-26T09:29:49.787Z,29.72
2017-08-26T09:32:16.654Z,29.56
2017-08-26T09:34:43.414Z,29.55
2017-08-26T09:37:09.900Z,29.51
2017-08-26T09:39:36.341Z,29.63
2017-08-26T09:42:02.991Z,29.55
2017-08-26T09:44:29.628Z,29.81
2017-08-26T09:46:56.130Z,29.77
2017-08-26T09:49:23.212Z,29.75
2017-08-26T09:51:49.647Z,29.69
2017-08-26T09:54:16.081Z,29.77
2017-08-26T09:56:42.708Z,29.69
2017-08-26T09:59:09.157Z,29.80
2017-08-26T10:01:35.677Z,29.72
2017-08-26T10:04:02.538Z,29.83
2017-08-26T10:06:29.023Z,30.10
2017-08-26T10:08:55.518Z,30.20
2017-08-26T10:11:22.456Z,30.27
2017-08-26T10:13:48.950Z,30.24
2017-08-26T10:16:15.484Z,30.23
2017-08-26T10:18:42.071Z,30.13
2017-08-26T10:21:08.507Z,30.30
2017-08-26T10:23:34.940Z,30.30
2017-08-26T10:26:01.886Z,30.22
2017-08-26T10:28:28.328Z,30.31
2017-08-26T10:30:54.755Z,30.31
2017-08-26T10:33:21.499Z,30.41
2017-08-26T10:35:47.994Z,30.46
2017-08-26T10:38:14.468Z,30.49
2017-08-26T10:40:41.541Z,30.58
2017-08-26T10:43:08.056Z,30.54
2017-08-26T10:45:34.594Z,30.64
2017-08-26T10:48:01.319Z,30.63
2017-08-26T10:50:27.770Z,30.65
2017-08-26T10:52:54.205Z,30.57
2017-08-26T10:55:20.699Z,30.65
2017-08-26T10:57:47.484Z,30.97
2017-08-26T11:00:14.124Z,30.91
2017-08-26T11:02:40.561Z,30.73
2017-08-26T11:05:07.664Z,30.55
2017-08-26T11:07:34.145Z,30.62
2017-08-26T11:10:00.680Z,30.66
2017-08-26T11:12:27.427Z,30.69
2017-08-26T11:14:53.857Z,30.86
2017-08-26T11:17:20.295Z,30.87
2017-08-26T11:19:46.680Z,30.99
2017-08-26T11:22:13.366Z,30.98
2017-08-26T11:24:39.907Z,31.11
2017-08-26T11:27:06.411Z,31.47
2017-08-26T11:29:33.289Z,32.01
2017-08-26T11:31:59.726Z,32.57
2017-08-26T11:34:26.260Z,33.40
2017-08-26T11:36:52.951Z,34.34
2017-08-26T11:39:19.439Z,34.46
2017-08-26T11:41:45.875Z,35.09
2017-08-26T11:44:12.675Z,35.76
2017-08-26T11:46:39.152Z,36.21
2017-08-26T11:49:05.586Z,36.52
2017-08-26T11:51:32.589Z,37.67
2017-08-26T11:53:59.027Z,38.33
2017-08-26T11:56:25.819Z,38.47
2017-08-26T11:58:52.761Z,38.21
2017-08-26T12:01:19.299Z,38.67
2017-08-26T12:03:45.732Z,39.02
2017-08-26T12:06:12.471Z,38.75
2017-08-26T12:08:39.014Z,39.26
2017-08-26T12:11:05.552Z,39.65
2017-08-26T12:13:32.188Z,39.71
2017-08-26T12:15:58.726Z,40.46
2017-08-26T12:18:25.571Z,40.94
2017-08-26T12:20:52.210Z,41.06
2017-08-26T12:23:18.707Z,41.30
2017-08-26T12:25:45.284Z,41.94
2017-08-26T12:28:12.563Z,42.58
2017-08-26T12:30:39.181Z,42.64
2017-08-26T12:33:05.615Z,42.93
2017-08-26T12:35:32.273Z,43.12
2017-08-26T12:37:58.790Z,43.21
2017-08-26T12:40:25.326Z,43.75
2017-08-26T12:42:52.173Z,44.36
2017-08-26T12:45:18.607Z,44.45
2017-08-26T12:47:45.575Z,44.72
2017-08-26T12:50:12.578Z,44.90
2017-08-26T12:52:38.990Z,44.80
2017-08-26T12:55:05.468Z,45.33
2017-08-26T12:57:31.866Z,44.99
2017-08-26T12:59:58.326Z,45.23
2017-08-26T13:02:24.816Z,45.78
2017-08-26T13:04:51.421Z,45.69
2017-08-26T13:07:17.955Z,45.75
2017-08-26T13:09:44.391Z,45.02
2017-08-26T13:12:10.881Z,45.67
2017-08-26T13:14:37.382Z,46.05
2017-08-26T13:17:03.896Z,44.86
2017-08-26T13:19:30.335Z,42.97
2017-08-26T13:21:56.720Z,44.18
2017-08-26T13:24:23.186Z,45.25
2017-08-26T13:26:49.579Z,45.20
2017-08-26T13:29:15.972Z,45.72
2017-08-26T13:31:42.459Z,46.51
2017-08-26T13:34:09.661Z,46.24
2017-08-26T13:36:36.095Z,46.20
2017-08-26T13:39:02.531Z,45.88
2017-08-26T13:41:28.963Z,44.84
2017-08-26T13:43:55.400Z,45.06
2017-08-26T13:46:21.939Z,45.47
2017-08-26T13:48:48.392Z,45.89
2017-08-26T13:51:15.627Z,45.44
2017-08-26T13:53:42.060Z,45.60
2017-08-26T13:56:08.617Z,44.36
2017-08-26T13:58:34.988Z,43.29
2017-08-26T14:01:01.463Z,42.12
2017-08-26T14:03:27.902Z,40.96
2017-08-26T14:05:54.444Z,39.94
2017-08-26T14:08:20.878Z,38.97
2017-08-26T14:10:47.277Z,37.84
2017-08-26T14:13:13.726Z,36.95
2017-08-26T14:15:40.284Z,35.90
2017-08-26T14:18:06.720Z,35.45
2017-08-26T14:20:33.103Z,35.35
2017-08-26T14:22:59.588Z,34.92
2017-08-26T14:25:26.742Z,34.55
2017-08-26T14:27:53.174Z,34.45
2017-08-26T14:30:19.609Z,34.24
2017-08-26T14:32:46.146Z,34.16
2017-08-26T14:35:13.831Z,34.15
2017-08-26T14:37:40.348Z,33.98
2017-08-26T14:40:06.784Z,33.82
2017-08-26T14:42:33.217Z,33.71
2017-08-26T14:44:59.651Z,33.50
2017-08-26T14:47:26.213Z,33.60
2017-08-26T14:49:52.701Z,33.22
2017-08-26T14:52:19.164Z,33.06
2017-08-26T14:54:45.683Z,33.06
2017-08-26T14:57:12.082Z,32.93
2017-08-26T14:59:39.489Z,32.88
2017-08-26T15:02:05.924Z,32.81
2017-08-26T15:04:32.409Z,32.62
2017-08-26T15:06:58.879Z,32.56
2017-08-26T15:09:25.332Z,32.45
2017-08-26T15:11:51.684Z,32.21
2017-08-26T15:14:18.200Z,32.21
2017-08-26T15:16:45.463Z,32.26
2017-08-26T15:19:11.889Z,32.30
2017-08-26T15:21:38.449Z,32.33
2017-08-26T15:24:04.965Z,32.24
2017-08-26T15:26:31.502Z,32.13
2017-08-26T15:28:57.934Z,32.12
2017-08-26T15:31:24.371Z,32.14
2017-08-26T15:33:51.523Z,32.06
2017-08-26T15:36:17.994Z,32.01
2017-08-26T15:38:44.447Z,31.95
2017-08-26T15:41:10.996Z,31.91
2017-08-26T15:43:37.468Z,31.85
2017-08-26T15:46:04.008Z,31.75
2017-08-26T15:48:30.437Z,31.70
2017-08-26T15:50:57.593Z,31.64
2017-08-26T15:53:23.980Z,31.66
2017-08-26T15:55:50.462Z,31.50
2017-08-26T15:58:16.853Z,31.55
2017-08-26T16:00:43.293Z,31.49
2017-08-26T16:03:09.717Z,31.31
2017-08-26T16:05:36.140Z,31.27
2017-08-26T16:08:03.248Z,31.21
2017-08-26T16:10:29.686Z,31.22
2017-08-26T16:12:56.119Z,31.12
2017-08-26T16:15:22.657Z,31.17
2017-08-26T16:17:49.049Z,31.10
2017-08-26T16:20:15.629Z,31.04
2017-08-26T16:22:42.001Z,30.97
2017-08-26T16:25:08.479Z,30.88
2017-08-26T16:27:34.925Z,30.81
2017-08-26T16:30:01.370Z,30.61
2017-08-26T16:32:27.761Z,30.68
2017-08-26T16:34:54.230Z,30.54
2017-08-26T16:37:20.677Z,30.39
2017-08-26T16:39:47.059Z,30.26
2017-08-26T16:42:14.263Z,30.12
2017-08-26T16:44:40.798Z,29.97
2017-08-26T16:47:07.231Z,29.83
2017-08-26T16:49:33.620Z,29.72
2017-08-26T16:52:00.103Z,29.60
2017-08-26T16:54:26.476Z,29.47
2017-08-26T16:56:52.973Z,29.37
2017-08-26T16:59:19.972Z,29.25
2017-08-26T17:01:46.453Z,29.14
2017-08-26T17:04:12.893Z,29.06
2017-08-26T17:06:39.326Z,28.94
2017-08-26T17:09:05.762Z,28.83
2017-08-26T17:11:32.195Z,28.70
2017-08-26T17:13:58.650Z,28.59
2017-08-26T17:16:25.679Z,28.48
2017-08-26T17:18:52.116Z,28.35
2017-08-26T17:21:18.509Z,28.25
2017-08-26T17:23:44.937Z,28.12
2017-08-26T17:26:11.420Z,28.08
2017-08-26T17:28:37.855Z,27.99
2017-08-26T17:31:04.290Z,27.87
2017-08-26T17:33:31.533Z,27.79
2017-08-26T17:35:58.080Z,27.70
2017-08-26T17:38:24.517Z,27.62
2017-08-26T17:40:50.948Z,27.52
2017-08-26T17:43:17.386Z,27.43
2017-08-26T17:45:43.923Z,27.37
2017-08-26T17:48:10.462Z,27.25
2017-08-26T17:50:37.511Z,27.17
2017-08-26T17:53:03.896Z,27.15
2017-08-26T17:55:30.424Z,27.08
2017-08-26T17:57:56.916Z,26.93
2017-08-26T18:00:23.351Z,26.90
2017-08-26T18:02:49.726Z,26.82
2017-08-26T18:05:16.219Z,26.77
2017-08-26T18:07:43.372Z,26.66
2017-08-26T18:10:09.906Z,26.35
2017-08-26T18:12:36.345Z,26.57
2017-08-26T18:15:02.884Z,26.50
2017-08-26T18:17:29.317Z,26.43
2017-08-26T18:19:55.752Z,26.33
2017-08-26T18:22:22.207Z,26.21
2017-08-26T18:24:49.441Z,26.12
2017-08-26T18:27:15.878Z,26.04
2017-08-26T18:29:42.414Z,25.99
2017-08-26T18:32:08.848Z,25.91
2017-08-26T18:34:35.402Z,25.90
2017-08-26T18:37:01.922Z,25.86
2017-08-26T18:39:28.420Z,25.80
2017-08-26T18:41:55.613Z,25.66
2017-08-26T18:44:22.000Z,25.57
2017-08-26T18:46:48.483Z,25.56
2017-08-26T18:49:14.937Z,25.53
2017-08-26T18:51:41.454Z,25.51
2017-08-26T18:54:07.888Z,25.41
2017-08-26T18:56:34.321Z,25.31
2017-08-26T18:59:01.476Z,25.23
2017-08-26T19:01:27.853Z,25.23
2017-08-26T19:03:54.345Z,25.19
2017-08-26T19:06:20.839Z,25.14
2017-08-26T19:08:47.316Z,25.08
2017-08-26T19:11:13.759Z,24.94
2017-08-26T19:13:40.190Z,24.88
2017-08-26T19:16:07.438Z,24.81
2017-08-26T19:18:33.876Z,24.76
2017-08-26T19:21:00.312Z,24.73
2017-08-26T19:23:26.746Z,24.71
2017-08-26T19:25:53.282Z,24.66
2017-08-26T19:28:19.721Z,24.51
2017-08-26T19:30:46.149Z,24.35
2017-08-26T19:33:12.690Z,24.28
2017-08-26T19:35:39.124Z,24.22
2017-08-26T19:38:05.605Z,24.17
2017-08-26T19:40:32.097Z,24.14
2017-08-26T19:42:58.482Z,24.04
2017-08-26T19:45:24.963Z,24.00
2017-08-26T19:47:51.404Z,24.03
2017-08-26T19:50:18.733Z,23.97
2017-08-26T19:52:45.180Z,23.90
2017-08-26T19:55:11.628Z,23.82
2017-08-26T19:57:38.069Z,23.71
2017-08-26T20:00:04.500Z,23.69
2017-08-26T20:02:30.935Z,23.64
2017-08-26T20:04:57.472Z,23.56
2017-08-26T20:07:24.624Z,23.55
2017-08-26T20:09:51.057Z,23.53
2017-08-26T20:12:17.492Z,23.45
2017-08-26T20:14:44.064Z,23.38
2017-08-26T20:17:10.524Z,23.36
2017-08-26T20:19:37.003Z,23.43
2017-08-26T20:22:03.436Z,23.47
2017-08-26T20:24:30.690Z,23.41
2017-08-26T20:26:57.077Z,23.36
2017-08-26T20:29:23.517Z,23.28
2017-08-26T20:31:49.952Z,23.23
2017-08-26T20:34:16.407Z,23.20
2017-08-26T20:36:42.822Z,23.14
2017-08-26T20:39:09.296Z,23.00
2017-08-26T20:41:36.334Z,22.99
2017-08-26T20:44:02.734Z,22.95
2017-08-26T20:46:29.238Z,22.86
2017-08-26T20:48:55.756Z,22.77
2017-08-26T20:51:22.191Z,22.64
2017-08-26T20:53:48.626Z,22.69
2017-08-26T20:56:15.185Z,22.59
2017-08-26T20:58:42.210Z,22.54
2017-08-26T21:01:08.649Z,22.59
2017-08-26T21:03:35.044Z,22.59
2017-08-26T21:06:01.514Z,22.62
2017-08-26T21:08:27.951Z,22.65
2017-08-26T21:10:54.443Z,22.54
2017-08-26T21:13:20.888Z,22.32
2017-08-26T21:15:48.174Z,22.23
2017-08-26T21:18:14.613Z,22.09
2017-08-26T21:20:41.000Z,22.37
2017-08-26T21:23:07.461Z,22.36
2017-08-26T21:25:34.123Z,22.19
2017-08-26T21:28:00.560Z,22.03
2017-08-26T21:30:26.993Z,21.97
2017-08-26T21:32:54.248Z,22.02
2017-08-26T21:35:20.775Z,22.07
2017-08-26T21:37:47.173Z,22.04
2017-08-26T21:40:13.653Z,21.94
2017-08-26T21:42:40.089Z,21.61
2017-08-26T21:45:06.624Z,21.93
2017-08-26T21:47:33.065Z,21.92
2017-08-26T21:50:00.174Z,21.93
2017-08-26T21:52:26.647Z,21.95
2017-08-26T21:54:53.185Z,21.93
2017-08-26T21:57:19.619Z,21.90
2017-08-26T21:59:46.053Z,21.76
2017-08-26T22:02:12.442Z,21.61
2017-08-26T22:04:38.926Z,21.55
2017-08-26T22:07:06.080Z,21.55
2017-08-26T22:09:32.512Z,21.48
2017-08-26T22:11:58.945Z,21.50
2017-08-26T22:14:25.331Z,21.54
2017-08-26T22:16:51.679Z,21.58
2017-08-26T22:19:18.144Z,21.56
2017-08-26T22:21:44.582Z,21.43
2017-08-26T22:24:11.755Z,21.51
2017-08-26T22:26:38.169Z,21.48
2017-08-26T22:29:04.563Z,21.49
2017-08-26T22:31:31.012Z,21.39
2017-08-26T22:33:57.473Z,21.31
2017-08-26T22:36:24.052Z,21.29
2017-08-26T22:38:50.656Z,21.17
2017-08-26T22:41:17.904Z,21.12
2017-08-26T22:43:44.342Z,21.14
2017-08-26T22:46:10.877Z,21.14
2017-08-26T22:48:37.311Z,21.12
2017-08-26T22:51:03.747Z,21.16
2017-08-26T22:53:30.184Z,21.25
2017-08-26T22:55:56.672Z,21.30
2017-08-26T22:58:23.667Z,21.28
2017-08-26T23:00:50.104Z,21.29
2017-08-26T23:03:16.512Z,21.21
2017-08-26T23:05:43.028Z,21.17
2017-08-26T23:08:09.510Z,21.17
2017-08-26T23:10:35.942Z,21.12
2017-08-26T23:13:02.480Z,21.14
2017-08-26T23:15:29.525Z,21.20
2017-08-26T23:17:55.964Z,21.18
2017-08-26T23:20:22.399Z,21.16
2017-08-26T23:22:48.784Z,21.10
2017-08-26T23:25:15.293Z,21.10
2017-08-26T23:27:41.788Z,21.10
2017-08-26T23:30:08.242Z,21.05
2017-08-26T23:32:35.393Z,21.06
2017-08-26T23:35:01.932Z,21.05
2017-08-26T23:37:28.467Z,21.01
2017-08-26T23:39:54.877Z,20.94
2017-08-26T23:42:21.297Z,20.80
2017-08-26T23:44:47.772Z,20.77
2017-08-26T23:47:14.208Z,20.70
2017-08-26T23:49:41.358Z,20.68
2017-08-26T23:52:07.790Z,20.62
2017-08-26T23:54:34.277Z,20.40
2017-08-26T23:57:00.766Z,20.38
2017-08-26T23:59:27.172Z,20.32
